sensor_id;sensor_type;location;lat;lon;timestamp;pressure;altitude;pressure_sealevel;temperature;humidity
61359;BME280;47228;46.762;23.598;2022-11-20T00:01:32;96897.70;;;4.62;88.94
61359;BME280;47228;46.762;23.598;2022-11-20T00:04:01;96891.56;;;4.61;88.56
61359;BME280;47228;46.762;23.598;2022-11-20T00:06:29;96884.34;;;4.55;88.50
61359;BME280;47228;46.762;23.598;2022-11-20T00:08:59;96882.39;;;4.50;88.58
61359;BME280;47228;46.762;23.598;2022-11-20T00:11:29;96880.42;;;4.46;88.71
61359;BME280;47228;46.762;23.598;2022-11-20T00:14:00;96884.35;;;4.42;88.98
61359;BME280;47228;46.762;23.598;2022-11-20T00:16:31;96872.65;;;4.40;89.34
61359;BME280;47228;46.762;23.598;2022-11-20T00:18:59;96863.73;;;4.43;89.60
61359;BME280;47228;46.762;23.598;2022-11-20T00:21:28;96858.47;;;4.46;90.09
61359;BME280;47228;46.762;23.598;2022-11-20T00:23:58;96854.95;;;4.49;89.93
61359;BME280;47228;46.762;23.598;2022-11-20T00:26:27;96850.80;;;4.50;89.98
61359;BME280;47228;46.762;23.598;2022-11-20T00:29:01;96845.64;;;4.51;89.63
61359;BME280;47228;46.762;23.598;2022-11-20T00:31:30;96843.70;;;4.51;89.85
61359;BME280;47228;46.762;23.598;2022-11-20T00:33:58;96838.18;;;4.50;89.69
61359;BME280;47228;46.762;23.598;2022-11-20T00:36:27;96836.59;;;4.52;89.94
61359;BME280;47228;46.762;23.598;2022-11-20T00:38:57;96841.07;;;4.55;89.82
61359;BME280;47228;46.762;23.598;2022-11-20T00:41:27;96843.21;;;4.56;89.74
61359;BME280;47228;46.762;23.598;2022-11-20T00:43:56;96847.39;;;4.59;90.09
61359;BME280;47228;46.762;23.598;2022-11-20T00:46:27;96845.16;;;4.62;89.75
61359;BME280;47228;46.762;23.598;2022-11-20T00:48:55;96843.15;;;4.62;89.71
61359;BME280;47228;46.762;23.598;2022-11-20T00:51:25;96843.31;;;4.65;89.60
61359;BME280;47228;46.762;23.598;2022-11-20T00:53:57;96837.20;;;4.70;89.95
61359;BME280;47228;46.762;23.598;2022-11-20T00:56:27;96837.02;;;4.74;89.97
61359;BME280;47228;46.762;23.598;2022-11-20T00:58:59;96839.90;;;4.78;89.97
61359;BME280;47228;46.762;23.598;2022-11-20T01:01:29;96839.80;;;4.79;89.58
61359;BME280;47228;46.762;23.598;2022-11-20T01:03:59;96839.71;;;4.78;89.55
61359;BME280;47228;46.762;23.598;2022-11-20T01:06:33;96836.59;;;4.78;89.39
61359;BME280;47228;46.762;23.598;2022-11-20T01:09:07;96835.95;;;4.76;89.00
61359;BME280;47228;46.762;23.598;2022-11-20T01:11:39;96835.47;;;4.71;88.87
61359;BME280;47228;46.762;23.598;2022-11-20T01:14:14;96828.33;;;4.69;89.63
61359;BME280;47228;46.762;23.598;2022-11-20T01:16:45;96824.94;;;4.68;89.22
61359;BME280;47228;46.762;23.598;2022-11-20T01:19:17;96813.98;;;4.66;89.59
61359;BME280;47228;46.762;23.598;2022-11-20T01:21:52;96803.11;;;4.68;89.74
61359;BME280;47228;46.762;23.598;2022-11-20T01:24:21;96795.02;;;4.66;89.35
61359;BME280;47228;46.762;23.598;2022-11-20T01:26:50;96793.99;;;4.64;89.19
61359;BME280;47228;46.762;23.598;2022-11-20T01:29:21;96794.96;;;4.63;89.56
61359;BME280;47228;46.762;23.598;2022-11-20T01:31:51;96796.16;;;4.65;89.94
61359;BME280;47228;46.762;23.598;2022-11-20T01:34:21;96782.90;;;4.69;90.19
61359;BME280;47228;46.762;23.598;2022-11-20T01:36:51;96770.48;;;4.72;90.12
61359;BME280;47228;46.762;23.598;2022-11-20T01:39:24;96771.08;;;4.74;89.96
61359;BME280;47228;46.762;23.598;2022-11-20T01:41:55;96768.94;;;4.78;90.11
61359;BME280;47228;46.762;23.598;2022-11-20T01:44:56;96767.89;;;4.77;89.69
61359;BME280;47228;46.762;23.598;2022-11-20T01:50:04;96772.48;;;4.76;89.61
61359;BME280;47228;46.762;23.598;2022-11-20T01:52:37;96765.91;;;4.75;89.57
61359;BME280;47228;46.762;23.598;2022-11-20T01:55:08;96755.64;;;4.76;89.68
61359;BME280;47228;46.762;23.598;2022-11-20T01:57:38;96747.00;;;4.75;89.45
61359;BME280;47228;46.762;23.598;2022-11-20T02:00:12;96743.13;;;4.73;89.24
61359;BME280;47228;46.762;23.598;2022-11-20T02:02:43;96744.20;;;4.72;89.35
61359;BME280;47228;46.762;23.598;2022-11-20T02:05:33;96739.20;;;4.69;89.32
61359;BME280;47228;46.762;23.598;2022-11-20T02:08:05;96726.77;;;4.69;89.41
61359;BME280;47228;46.762;23.598;2022-11-20T02:10:34;96716.05;;;4.69;89.66
61359;BME280;47228;46.762;23.598;2022-11-20T02:13:03;96717.25;;;4.71;89.75
61359;BME280;47228;46.762;23.598;2022-11-20T02:15:50;96720.03;;;4.71;89.56
61359;BME280;47228;46.762;23.598;2022-11-20T02:18:19;96719.16;;;4.73;89.74
61359;BME280;47228;46.762;23.598;2022-11-20T02:20:50;96718.38;;;4.72;89.92
61359;BME280;47228;46.762;23.598;2022-11-20T02:23:23;96720.54;;;4.70;89.46
61359;BME280;47228;46.762;23.598;2022-11-20T02:25:55;96718.84;;;4.70;89.57
61359;BME280;47228;46.762;23.598;2022-11-20T02:28:23;96714.54;;;4.69;89.71
61359;BME280;47228;46.762;23.598;2022-11-20T02:30:51;96711.19;;;4.69;89.92
61359;BME280;47228;46.762;23.598;2022-11-20T02:33:19;96715.46;;;4.69;89.78
61359;BME280;47228;46.762;23.598;2022-11-20T02:35:47;96715.36;;;4.69;90.20
61359;BME280;47228;46.762;23.598;2022-11-20T02:38:15;96707.86;;;4.72;90.32
61359;BME280;47228;46.762;23.598;2022-11-20T02:40:43;96696.31;;;4.75;90.40
61359;BME280;47228;46.762;23.598;2022-11-20T02:43:11;96667.36;;;4.76;90.28
61359;BME280;47228;46.762;23.598;2022-11-20T02:45:42;96651.33;;;4.75;90.23
61359;BME280;47228;46.762;23.598;2022-11-20T02:48:10;96652.63;;;4.76;90.23
61359;BME280;47228;46.762;23.598;2022-11-20T02:50:38;96659.30;;;4.76;90.15
61359;BME280;47228;46.762;23.598;2022-11-20T02:53:07;96663.71;;;4.76;90.07
61359;BME280;47228;46.762;23.598;2022-11-20T02:55:35;96667.12;;;4.77;90.07
61359;BME280;47228;46.762;23.598;2022-11-20T02:58:04;96663.50;;;4.78;90.28
61359;BME280;47228;46.762;23.598;2022-11-20T03:00:32;96654.42;;;4.77;90.02
61359;BME280;47228;46.762;23.598;2022-11-20T03:03:00;96648.02;;;4.77;90.10
61359;BME280;47228;46.762;23.598;2022-11-20T03:05:28;96652.64;;;4.75;89.64
61359;BME280;47228;46.762;23.598;2022-11-20T03:07:55;96648.84;;;4.71;89.68
61359;BME280;47228;46.762;23.598;2022-11-20T03:10:23;96651.70;;;4.70;89.80
61359;BME280;47228;46.762;23.598;2022-11-20T03:12:55;96650.08;;;4.67;89.72
61359;BME280;47228;46.762;23.598;2022-11-20T03:15:23;96646.02;;;4.65;89.80
61359;BME280;47228;46.762;23.598;2022-11-20T03:17:55;96640.91;;;4.61;89.53
61359;BME280;47228;46.762;23.598;2022-11-20T03:20:23;96643.41;;;4.58;89.37
61359;BME280;47228;46.762;23.598;2022-11-20T03:22:53;96646.55;;;4.53;89.14
61359;BME280;47228;46.762;23.598;2022-11-20T03:25:22;96640.46;;;4.48;89.21
61359;BME280;47228;46.762;23.598;2022-11-20T03:27:50;96625.91;;;4.44;89.40
61359;BME280;47228;46.762;23.598;2022-11-20T03:30:18;96618.69;;;4.40;89.43
61359;BME280;47228;46.762;23.598;2022-11-20T03:32:46;96606.77;;;4.37;89.52
61359;BME280;47228;46.762;23.598;2022-11-20T03:35:14;96585.25;;;4.37;90.07
61359;BME280;47228;46.762;23.598;2022-11-20T03:37:42;96582.83;;;4.40;90.66
61359;BME280;47228;46.762;23.598;2022-11-20T03:40:10;96570.33;;;4.44;90.71
61359;BME280;47228;46.762;23.598;2022-11-20T03:42:38;96551.48;;;4.48;91.05
61359;BME280;47228;46.762;23.598;2022-11-20T03:45:17;96555.64;;;4.51;90.50
61359;BME280;47228;46.762;23.598;2022-11-20T03:47:46;96589.77;;;4.48;90.04
61359;BME280;47228;46.762;23.598;2022-11-20T03:50:14;96590.64;;;4.47;90.08
61359;BME280;47228;46.762;23.598;2022-11-20T03:52:42;96592.86;;;4.43;89.89
61359;BME280;47228;46.762;23.598;2022-11-20T03:55:10;96579.88;;;4.40;90.20
61359;BME280;47228;46.762;23.598;2022-11-20T03:57:38;96589.78;;;4.40;90.27
61359;BME280;47228;46.762;23.598;2022-11-20T04:00:13;96596.80;;;4.38;90.32
61359;BME280;47228;46.762;23.598;2022-11-20T04:02:42;96596.39;;;4.38;90.53
61359;BME280;47228;46.762;23.598;2022-11-20T04:05:10;96598.27;;;4.37;90.23
61359;BME280;47228;46.762;23.598;2022-11-20T04:07:38;96592.81;;;4.37;90.47
61359;BME280;47228;46.762;23.598;2022-11-20T04:10:06;96591.13;;;4.37;90.46
61359;BME280;47228;46.762;23.598;2022-11-20T04:12:36;96583.05;;;4.36;90.58
61359;BME280;47228;46.762;23.598;2022-11-20T04:15:04;96588.60;;;4.36;90.47
61359;BME280;47228;46.762;23.598;2022-11-20T04:17:32;96587.84;;;4.37;90.37
61359;BME280;47228;46.762;23.598;2022-11-20T04:20:00;96586.79;;;4.38;90.51
61359;BME280;47228;46.762;23.598;2022-11-20T04:22:28;96590.90;;;4.39;90.62
61359;BME280;47228;46.762;23.598;2022-11-20T04:24:56;96591.16;;;4.40;90.50
61359;BME280;47228;46.762;23.598;2022-11-20T04:27:24;96586.27;;;4.38;90.35
61359;BME280;47228;46.762;23.598;2022-11-20T04:29:52;96576.21;;;4.38;90.58
61359;BME280;47228;46.762;23.598;2022-11-20T04:32:21;96576.21;;;4.39;90.28
61359;BME280;47228;46.762;23.598;2022-11-20T04:34:50;96582.45;;;4.36;90.15
61359;BME280;47228;46.762;23.598;2022-11-20T04:37:20;96577.81;;;4.36;90.37
61359;BME280;47228;46.762;23.598;2022-11-20T04:39:48;96569.81;;;4.35;90.45
61359;BME280;47228;46.762;23.598;2022-11-20T04:42:16;96570.55;;;4.32;90.10
61359;BME280;47228;46.762;23.598;2022-11-20T04:44:57;96567.02;;;4.29;90.06
61359;BME280;47228;46.762;23.598;2022-11-20T04:47:25;96568.16;;;4.29;90.25
61359;BME280;47228;46.762;23.598;2022-11-20T04:49:53;96561.20;;;4.29;90.89
61359;BME280;47228;46.762;23.598;2022-11-20T04:52:21;96548.15;;;4.30;90.54
61359;BME280;47228;46.762;23.598;2022-11-20T04:54:49;96540.60;;;4.30;90.63
61359;BME280;47228;46.762;23.598;2022-11-20T04:57:20;96536.98;;;4.33;90.55
61359;BME280;47228;46.762;23.598;2022-11-20T04:59:48;96539.70;;;4.35;90.36
61359;BME280;47228;46.762;23.598;2022-11-20T05:02:16;96535.75;;;4.34;90.28
61359;BME280;47228;46.762;23.598;2022-11-20T05:04:44;96534.34;;;4.32;90.23
61359;BME280;47228;46.762;23.598;2022-11-20T05:07:12;96532.11;;;4.31;90.15
61359;BME280;47228;46.762;23.598;2022-11-20T05:09:40;96528.21;;;4.30;90.32
61359;BME280;47228;46.762;23.598;2022-11-20T05:12:08;96522.91;;;4.30;90.54
61359;BME280;47228;46.762;23.598;2022-11-20T05:14:36;96521.55;;;4.31;90.57
61359;BME280;47228;46.762;23.598;2022-11-20T05:17:04;96523.90;;;4.32;90.75
61359;BME280;47228;46.762;23.598;2022-11-20T05:19:32;96518.02;;;4.34;90.96
61359;BME280;47228;46.762;23.598;2022-11-20T05:22:00;96512.01;;;4.35;90.60
61359;BME280;47228;46.762;23.598;2022-11-20T05:24:28;96500.61;;;4.32;89.99
61359;BME280;47228;46.762;23.598;2022-11-20T05:26:55;96495.23;;;4.29;90.15
61359;BME280;47228;46.762;23.598;2022-11-20T05:29:23;96495.94;;;4.27;90.33
61359;BME280;47228;46.762;23.598;2022-11-20T05:31:51;96499.92;;;4.25;90.45
61359;BME280;47228;46.762;23.598;2022-11-20T05:34:19;96500.89;;;4.23;90.25
61359;BME280;47228;46.762;23.598;2022-11-20T05:36:47;96499.15;;;4.20;90.26
61359;BME280;47228;46.762;23.598;2022-11-20T05:39:15;96496.54;;;4.19;90.41
61359;BME280;47228;46.762;23.598;2022-11-20T05:41:43;96498.44;;;4.19;90.58
61359;BME280;47228;46.762;23.598;2022-11-20T05:44:11;96506.70;;;4.20;90.68
61359;BME280;47228;46.762;23.598;2022-11-20T05:46:39;96515.04;;;4.21;90.72
61359;BME280;47228;46.762;23.598;2022-11-20T05:49:06;96515.27;;;4.22;90.93
61359;BME280;47228;46.762;23.598;2022-11-20T05:51:34;96522.55;;;4.22;90.68
61359;BME280;47228;46.762;23.598;2022-11-20T05:54:02;96528.09;;;4.20;90.32
61359;BME280;47228;46.762;23.598;2022-11-20T05:56:30;96531.27;;;4.19;90.32
61359;BME280;47228;46.762;23.598;2022-11-20T05:58:58;96532.43;;;4.18;90.66
61359;BME280;47228;46.762;23.598;2022-11-20T06:01:26;96528.97;;;4.16;90.45
61359;BME280;47228;46.762;23.598;2022-11-20T06:03:54;96530.48;;;4.13;90.12
61359;BME280;47228;46.762;23.598;2022-11-20T06:06:22;96527.98;;;4.11;90.15
61359;BME280;47228;46.762;23.598;2022-11-20T06:08:50;96527.56;;;4.10;90.48
61359;BME280;47228;46.762;23.598;2022-11-20T06:11:18;96532.60;;;4.09;90.65
61359;BME280;47228;46.762;23.598;2022-11-20T06:13:46;96535.58;;;4.08;90.86
61359;BME280;47228;46.762;23.598;2022-11-20T06:16:17;96533.69;;;4.08;91.02
61359;BME280;47228;46.762;23.598;2022-11-20T06:18:46;96525.60;;;4.08;90.83
61359;BME280;47228;46.762;23.598;2022-11-20T06:21:19;96524.95;;;4.08;90.66
61359;BME280;47228;46.762;23.598;2022-11-20T06:23:49;96532.04;;;4.09;90.83
61359;BME280;47228;46.762;23.598;2022-11-20T06:26:20;96533.83;;;4.10;90.99
61359;BME280;47228;46.762;23.598;2022-11-20T06:28:48;96526.27;;;4.13;91.44
61359;BME280;47228;46.762;23.598;2022-11-20T06:31:18;96524.36;;;4.19;91.88
61359;BME280;47228;46.762;23.598;2022-11-20T06:33:46;96522.86;;;4.26;91.99
61359;BME280;47228;46.762;23.598;2022-11-20T06:36:17;96524.97;;;4.32;91.71
61359;BME280;47228;46.762;23.598;2022-11-20T06:38:46;96529.92;;;4.37;91.74
61359;BME280;47228;46.762;23.598;2022-11-20T06:41:17;96537.21;;;4.41;91.50
61359;BME280;47228;46.762;23.598;2022-11-20T06:43:45;96539.96;;;4.43;91.42
61359;BME280;47228;46.762;23.598;2022-11-20T06:46:14;96537.64;;;4.45;91.24
61359;BME280;47228;46.762;23.598;2022-11-20T06:48:46;96538.61;;;4.47;91.24
61359;BME280;47228;46.762;23.598;2022-11-20T06:51:15;96542.36;;;4.49;91.56
61359;BME280;47228;46.762;23.598;2022-11-20T06:53:44;96551.83;;;4.52;91.37
61359;BME280;47228;46.762;23.598;2022-11-20T06:56:13;96558.89;;;4.55;91.30
61359;BME280;47228;46.762;23.598;2022-11-20T06:58:41;96560.81;;;4.57;91.38
61359;BME280;47228;46.762;23.598;2022-11-20T07:01:10;96561.84;;;4.58;91.31
61359;BME280;47228;46.762;23.598;2022-11-20T07:03:39;96564.84;;;4.60;90.85
61359;BME280;47228;46.762;23.598;2022-11-20T07:06:08;96569.72;;;4.57;90.44
61359;BME280;47228;46.762;23.598;2022-11-20T07:08:36;96565.13;;;4.56;90.65
61359;BME280;47228;46.762;23.598;2022-11-20T07:11:06;96551.36;;;4.55;90.73
61359;BME280;47228;46.762;23.598;2022-11-20T07:13:34;96550.20;;;4.56;91.10
61359;BME280;47228;46.762;23.598;2022-11-20T07:16:05;96552.58;;;4.58;91.13
61359;BME280;47228;46.762;23.598;2022-11-20T07:18:35;96549.77;;;4.61;91.40
61359;BME280;47228;46.762;23.598;2022-11-20T07:21:05;96547.42;;;4.64;91.33
61359;BME280;47228;46.762;23.598;2022-11-20T07:23:33;96550.34;;;4.69;91.32
61359;BME280;47228;46.762;23.598;2022-11-20T07:26:06;96548.46;;;4.75;91.40
61359;BME280;47228;46.762;23.598;2022-11-20T07:28:36;96553.79;;;4.80;91.30
61359;BME280;47228;46.762;23.598;2022-11-20T07:31:04;96553.41;;;4.83;91.10
61359;BME280;47228;46.762;23.598;2022-11-20T07:33:34;96550.34;;;4.84;91.06
61359;BME280;47228;46.762;23.598;2022-11-20T07:36:03;96552.23;;;4.87;91.14
61359;BME280;47228;46.762;23.598;2022-11-20T07:38:31;96553.08;;;4.90;91.01
61359;BME280;47228;46.762;23.598;2022-11-20T07:40:59;96553.94;;;4.90;90.48
61359;BME280;47228;46.762;23.598;2022-11-20T07:43:29;96549.48;;;4.90;90.40
61359;BME280;47228;46.762;23.598;2022-11-20T07:45:58;96549.98;;;4.88;90.52
61359;BME280;47228;46.762;23.598;2022-11-20T07:48:26;96559.29;;;4.88;90.55
61359;BME280;47228;46.762;23.598;2022-11-20T07:50:57;96560.25;;;4.88;90.57
61359;BME280;47228;46.762;23.598;2022-11-20T07:53:25;96556.46;;;4.89;90.58
61359;BME280;47228;46.762;23.598;2022-11-20T07:55:53;96566.14;;;4.88;90.41
61359;BME280;47228;46.762;23.598;2022-11-20T07:58:21;96573.11;;;4.89;90.71
61359;BME280;47228;46.762;23.598;2022-11-20T08:00:49;96583.46;;;4.89;90.52
61359;BME280;47228;46.762;23.598;2022-11-20T08:03:17;96576.42;;;4.89;90.47
61359;BME280;47228;46.762;23.598;2022-11-20T08:05:51;96570.29;;;4.87;90.25
61359;BME280;47228;46.762;23.598;2022-11-20T08:08:20;96576.58;;;4.83;90.19
61359;BME280;47228;46.762;23.598;2022-11-20T08:10:49;96580.68;;;4.83;90.36
61359;BME280;47228;46.762;23.598;2022-11-20T08:13:17;96584.41;;;4.82;90.55
61359;BME280;47228;46.762;23.598;2022-11-20T08:16:03;96581.50;;;4.83;91.16
61359;BME280;47228;46.762;23.598;2022-11-20T08:18:31;96578.58;;;4.86;91.33
61359;BME280;47228;46.762;23.598;2022-11-20T08:21:04;96584.23;;;4.89;91.27
61359;BME280;47228;46.762;23.598;2022-11-20T08:23:32;96586.90;;;4.92;91.10
61359;BME280;47228;46.762;23.598;2022-11-20T08:26:00;96589.77;;;4.95;91.20
61359;BME280;47228;46.762;23.598;2022-11-20T08:28:27;96590.23;;;4.95;90.96
61359;BME280;47228;46.762;23.598;2022-11-20T08:31:00;96585.42;;;4.96;90.93
61359;BME280;47228;46.762;23.598;2022-11-20T08:33:28;96588.86;;;4.96;90.91
61359;BME280;47228;46.762;23.598;2022-11-20T08:36:03;96576.40;;;4.98;90.91
61359;BME280;47228;46.762;23.598;2022-11-20T08:38:32;96575.85;;;5.00;90.92
61359;BME280;47228;46.762;23.598;2022-11-20T08:41:01;96578.14;;;5.02;90.90
61359;BME280;47228;46.762;23.598;2022-11-20T08:43:48;96580.11;;;5.02;90.60
61359;BME280;47228;46.762;23.598;2022-11-20T08:46:16;96574.70;;;5.02;90.95
61359;BME280;47228;46.762;23.598;2022-11-20T08:48:44;96581.88;;;5.03;90.88
61359;BME280;47228;46.762;23.598;2022-11-20T08:51:12;96588.57;;;5.05;91.01
61359;BME280;47228;46.762;23.598;2022-11-20T08:53:40;96597.33;;;5.06;91.01
61359;BME280;47228;46.762;23.598;2022-11-20T08:56:08;96599.31;;;5.10;91.21
61359;BME280;47228;46.762;23.598;2022-11-20T08:58:39;96609.02;;;5.13;91.29
61359;BME280;47228;46.762;23.598;2022-11-20T09:01:28;96606.91;;;5.16;91.49
61359;BME280;47228;46.762;23.598;2022-11-20T09:03:57;96601.31;;;5.19;91.25
61359;BME280;47228;46.762;23.598;2022-11-20T09:06:27;96602.39;;;5.23;91.34
61359;BME280;47228;46.762;23.598;2022-11-20T09:08:55;96597.22;;;5.28;91.38
61359;BME280;47228;46.762;23.598;2022-11-20T09:11:26;96591.45;;;5.30;91.03
61359;BME280;47228;46.762;23.598;2022-11-20T09:13:54;96589.38;;;5.32;90.87
61359;BME280;47228;46.762;23.598;2022-11-20T09:16:21;96596.18;;;5.34;90.94
61359;BME280;47228;46.762;23.598;2022-11-20T09:18:50;96605.25;;;5.33;90.70
61359;BME280;47228;46.762;23.598;2022-11-20T09:21:38;96607.21;;;5.31;90.48
61359;BME280;47228;46.762;23.598;2022-11-20T09:24:06;96604.23;;;5.28;90.55
61359;BME280;47228;46.762;23.598;2022-11-20T09:26:34;96601.98;;;5.27;90.85
61359;BME280;47228;46.762;23.598;2022-11-20T09:29:02;96596.78;;;5.28;90.95
61359;BME280;47228;46.762;23.598;2022-11-20T09:31:30;96588.02;;;5.31;91.05
61359;BME280;47228;46.762;23.598;2022-11-20T09:33:58;96588.41;;;5.34;90.98
61359;BME280;47228;46.762;23.598;2022-11-20T09:36:25;96589.58;;;5.39;91.12
61359;BME280;47228;46.762;23.598;2022-11-20T09:38:54;96592.85;;;5.45;91.19
61359;BME280;47228;46.762;23.598;2022-11-20T09:44:47;96584.14;;;5.53;90.91
61359;BME280;47228;46.762;23.598;2022-11-20T09:47:24;96587.69;;;5.55;90.68
61359;BME280;47228;46.762;23.598;2022-11-20T09:50:16;96586.92;;;5.60;90.90
61359;BME280;47228;46.762;23.598;2022-11-20T09:55:54;96578.13;;;5.72;90.87
61359;BME280;47228;46.762;23.598;2022-11-20T09:58:37;96582.04;;;5.75;90.20
61359;BME280;47228;46.762;23.598;2022-11-20T10:01:18;96583.20;;;5.72;89.66
61359;BME280;47228;46.762;23.598;2022-11-20T10:04:03;96578.63;;;5.68;89.54
61359;BME280;47228;46.762;23.598;2022-11-20T10:06:34;96571.44;;;5.65;90.11
61359;BME280;47228;46.762;23.598;2022-11-20T10:11:52;96573.80;;;5.66;90.04
61359;BME280;47228;46.762;23.598;2022-11-20T10:14:35;96566.44;;;5.69;90.44
61359;BME280;47228;46.762;23.598;2022-11-20T10:19:53;96572.79;;;5.78;90.87
61359;BME280;47228;46.762;23.598;2022-11-20T10:22:52;96573.04;;;5.79;90.06
61359;BME280;47228;46.762;23.598;2022-11-20T10:30:46;96570.67;;;5.71;90.27
61359;BME280;47228;46.762;23.598;2022-11-20T10:33:21;96565.93;;;5.71;89.78
61359;BME280;47228;46.762;23.598;2022-11-20T10:38:43;96564.60;;;5.66;89.82
61359;BME280;47228;46.762;23.598;2022-11-20T10:41:25;96569.55;;;5.69;90.22
61359;BME280;47228;46.762;23.598;2022-11-20T10:44:17;96570.95;;;5.72;89.89
61359;BME280;47228;46.762;23.598;2022-11-20T10:47:13;96571.95;;;5.74;90.12
61359;BME280;47228;46.762;23.598;2022-11-20T10:49:43;96566.70;;;5.76;90.16
61359;BME280;47228;46.762;23.598;2022-11-20T10:55:32;96567.45;;;5.80;89.85
61359;BME280;47228;46.762;23.598;2022-11-20T10:58:13;96567.60;;;5.84;90.01
61359;BME280;47228;46.762;23.598;2022-11-20T11:00:41;96565.15;;;5.86;90.04
61359;BME280;47228;46.762;23.598;2022-11-20T11:03:22;96560.38;;;5.89;90.13
61359;BME280;47228;46.762;23.598;2022-11-20T11:06:06;96566.36;;;5.92;89.91
61359;BME280;47228;46.762;23.598;2022-11-20T11:08:39;96560.05;;;5.95;89.65
61359;BME280;47228;46.762;23.598;2022-11-20T11:11:23;96560.19;;;5.98;89.78
61359;BME280;47228;46.762;23.598;2022-11-20T11:13:52;96563.86;;;6.02;89.47
61359;BME280;47228;46.762;23.598;2022-11-20T11:16:22;96566.80;;;6.03;88.79
61359;BME280;47228;46.762;23.598;2022-11-20T11:18:51;96564.01;;;5.98;88.55
61359;BME280;47228;46.762;23.598;2022-11-20T11:21:25;96569.34;;;5.96;88.77
61359;BME280;47228;46.762;23.598;2022-11-20T11:23:59;96572.21;;;5.96;89.03
61359;BME280;47228;46.762;23.598;2022-11-20T11:26:57;96575.64;;;5.98;89.40
61359;BME280;47228;46.762;23.598;2022-11-20T11:29:26;96571.77;;;5.95;88.24
61359;BME280;47228;46.762;23.598;2022-11-20T11:32:18;96574.09;;;5.89;87.66
61359;BME280;47228;46.762;23.598;2022-11-20T11:35:24;96562.50;;;5.84;88.20
61359;BME280;47228;46.762;23.598;2022-11-20T11:38:03;96561.22;;;5.81;88.45
61359;BME280;47228;46.762;23.598;2022-11-20T11:40:33;96568.26;;;5.79;88.63
61359;BME280;47228;46.762;23.598;2022-11-20T11:43:05;96575.33;;;5.80;88.46
61359;BME280;47228;46.762;23.598;2022-11-20T11:45:55;96575.85;;;5.80;88.53
61359;BME280;47228;46.762;23.598;2022-11-20T11:48:23;96577.81;;;5.83;89.21
61359;BME280;47228;46.762;23.598;2022-11-20T11:50:51;96579.58;;;5.86;88.97
61359;BME280;47228;46.762;23.598;2022-11-20T11:53:21;96583.39;;;5.87;88.38
61359;BME280;47228;46.762;23.598;2022-11-20T11:55:53;96583.16;;;5.87;88.97
61359;BME280;47228;46.762;23.598;2022-11-20T12:03:55;96579.27;;;5.94;89.08
61359;BME280;47228;46.762;23.598;2022-11-20T12:06:27;96580.22;;;5.97;88.82
61359;BME280;47228;46.762;23.598;2022-11-20T12:11:34;96580.08;;;5.99;88.99
61359;BME280;47228;46.762;23.598;2022-11-20T12:14:21;96578.14;;;6.02;88.77
61359;BME280;47228;46.762;23.598;2022-11-20T12:16:53;96576.73;;;6.02;88.31
61359;BME280;47228;46.762;23.598;2022-11-20T12:19:24;96569.62;;;6.00;88.34
61359;BME280;47228;46.762;23.598;2022-11-20T12:43:59;96597.59;;;5.88;88.53
61359;BME280;47228;46.762;23.598;2022-11-20T12:47:07;96593.34;;;5.88;88.47
61359;BME280;47228;46.762;23.598;2022-11-20T12:52:54;96588.58;;;5.87;88.57
61359;BME280;47228;46.762;23.598;2022-11-20T12:55:33;96583.91;;;5.85;88.42
61359;BME280;47228;46.762;23.598;2022-11-20T13:04:39;96579.64;;;5.81;88.96
61359;BME280;47228;46.762;23.598;2022-11-20T13:07:13;96590.66;;;5.83;89.04
61359;BME280;47228;46.762;23.598;2022-11-20T13:09:47;96590.02;;;5.84;88.80
61359;BME280;47228;46.762;23.598;2022-11-20T13:14:54;96582.02;;;5.85;88.81
61359;BME280;47228;46.762;23.598;2022-11-20T13:20:16;96587.48;;;5.93;89.49
61359;BME280;47228;46.762;23.598;2022-11-20T13:22:49;96580.14;;;5.97;89.66
61359;BME280;47228;46.762;23.598;2022-11-20T13:25:32;96585.96;;;6.01;89.65
61359;BME280;47228;46.762;23.598;2022-11-20T13:30:50;96583.08;;;6.09;89.28
61359;BME280;47228;46.762;23.598;2022-11-20T13:33:38;96579.13;;;6.13;89.23
61359;BME280;47228;46.762;23.598;2022-11-20T13:36:20;96578.99;;;6.14;89.02
61359;BME280;47228;46.762;23.598;2022-11-20T13:38:50;96576.98;;;6.13;88.79
61359;BME280;47228;46.762;23.598;2022-11-20T13:46:51;96600.23;;;6.14;88.95
61359;BME280;47228;46.762;23.598;2022-11-20T13:49:32;96610.33;;;6.15;88.79
61359;BME280;47228;46.762;23.598;2022-11-20T13:55:23;96602.56;;;6.12;88.85
61359;BME280;47228;46.762;23.598;2022-11-20T14:00:27;96603.03;;;6.08;88.80
61359;BME280;47228;46.762;23.598;2022-11-20T14:05:31;96617.86;;;6.06;88.23
61359;BME280;47228;46.762;23.598;2022-11-20T14:08:04;96620.36;;;6.05;88.50
61359;BME280;47228;46.762;23.598;2022-11-20T14:10:33;96613.10;;;6.03;88.71
61359;BME280;47228;46.762;23.598;2022-11-20T14:13:20;96609.95;;;6.02;88.27
61359;BME280;47228;46.762;23.598;2022-11-20T14:15:56;96613.69;;;6.00;88.31
61359;BME280;47228;46.762;23.598;2022-11-20T14:18:26;96618.80;;;6.01;88.69
61359;BME280;47228;46.762;23.598;2022-11-20T14:20:55;96622.33;;;6.01;88.67
61359;BME280;47228;46.762;23.598;2022-11-20T14:23:27;96623.02;;;6.01;88.70
61359;BME280;47228;46.762;23.598;2022-11-20T14:25:57;96623.38;;;5.98;88.64
61359;BME280;47228;46.762;23.598;2022-11-20T14:28:26;96623.05;;;5.94;88.13
61359;BME280;47228;46.762;23.598;2022-11-20T14:30:56;96619.13;;;5.89;88.35
61359;BME280;47228;46.762;23.598;2022-11-20T14:33:25;96615.23;;;5.88;88.87
61359;BME280;47228;46.762;23.598;2022-11-20T14:35:56;96612.48;;;5.88;88.94
61359;BME280;47228;46.762;23.598;2022-11-20T14:38:27;96610.23;;;5.88;88.78
61359;BME280;47228;46.762;23.598;2022-11-20T14:41:06;96610.40;;;5.88;88.80
61359;BME280;47228;46.762;23.598;2022-11-20T14:43:36;96612.61;;;5.90;88.98
61359;BME280;47228;46.762;23.598;2022-11-20T14:46:08;96614.27;;;5.91;88.80
61359;BME280;47228;46.762;23.598;2022-11-20T14:48:46;96611.92;;;5.89;88.32
61359;BME280;47228;46.762;23.598;2022-11-20T14:51:35;96600.56;;;5.84;88.20